sensor_id;sensor_type;location;lat;lon;timestamp;temperature;humidity
47114;DHT22;32867;51.556;6.832;2023-07-22T00:04:13;16.30;99.90
47114;DHT22;32867;51.556;6.832;2023-07-22T00:09:14;16.30;99.90
47114;DHT22;32867;51.556;6.832;2023-07-22T00:14:14;16.40;99.90
47114;DHT22;32867;51.556;6.832;2023-07-22T00:19:15;16.30;99.90
47114;DHT22;32867;51.556;6.832;2023-07-22T00:24:16;16.30;99.90
47114;DHT22;32867;51.556;6.832;2023-07-22T00:29:16;16.20;99.90
47114;DHT22;32867;51.556;6.832;2023-07-22T00:34:17;16.20;99.90
47114;DHT22;32867;51.556;6.832;2023-07-22T00:39:18;16.20;99.90
47114;DHT22;32867;51.556;6.832;2023-07-22T00:44:19;16.20;99.90
47114;DHT22;32867;51.556;6.832;2023-07-22T00:49:20;16.30;99.90
47114;DHT22;32867;51.556;6.832;2023-07-22T00:54:21;16.30;99.90
47114;DHT22;32867;51.556;6.832;2023-07-22T00:59:21;16.30;99.90
47114;DHT22;32867;51.556;6.832;2023-07-22T01:04:23;16.30;99.90
47114;DHT22;32867;51.556;6.832;2023-07-22T01:09:24;16.20;99.90
47114;DHT22;32867;51.556;6.832;2023-07-22T01:14:25;16.20;99.90
47114;DHT22;32867;51.556;6.832;2023-07-22T01:19:27;16.20;99.90
47114;DHT22;32867;51.556;6.832;2023-07-22T01:24:29;16.10;99.90
47114;DHT22;32867;51.556;6.832;2023-07-22T01:29:30;16.10;99.90
47114;DHT22;32867;51.556;6.832;2023-07-22T01:34:30;16.20;99.90
47114;DHT22;32867;51.556;6.832;2023-07-22T01:39:32;16.10;99.90
47114;DHT22;32867;51.556;6.832;2023-07-22T01:44:33;16.10;99.90
47114;DHT22;32867;51.556;6.832;2023-07-22T01:49:33;16.00;99.90
47114;DHT22;32867;51.556;6.832;2023-07-22T01:54:34;16.00;99.90
47114;DHT22;32867;51.556;6.832;2023-07-22T01:59:35;16.00;99.90
47114;DHT22;32867;51.556;6.832;2023-07-22T02:04:35;16.00;99.90
47114;DHT22;32867;51.556;6.832;2023-07-22T02:09:36;16.00;99.90
47114;DHT22;32867;51.556;6.832;2023-07-22T02:14:37;16.00;99.90
47114;DHT22;32867;51.556;6.832;2023-07-22T02:19:38;16.00;99.90
47114;DHT22;32867;51.556;6.832;2023-07-22T02:24:39;16.00;99.90
47114;DHT22;32867;51.556;6.832;2023-07-22T02:29:40;16.00;99.90
47114;DHT22;32867;51.556;6.832;2023-07-22T02:34:41;16.00;99.90
47114;DHT22;32867;51.556;6.832;2023-07-22T02:39:41;16.00;99.90
47114;DHT22;32867;51.556;6.832;2023-07-22T02:44:42;16.00;99.90
47114;DHT22;32867;51.556;6.832;2023-07-22T02:49:44;16.00;99.90
47114;DHT22;32867;51.556;6.832;2023-07-22T03:00:08;16.10;99.90
47114;DHT22;32867;51.556;6.832;2023-07-22T03:05:09;16.10;99.90
47114;DHT22;32867;51.556;6.832;2023-07-22T03:10:10;16.20;99.90
47114;DHT22;32867;51.556;6.832;2023-07-22T03:15:11;16.10;99.90
47114;DHT22;32867;51.556;6.832;2023-07-22T03:20:13;16.10;99.90
47114;DHT22;32867;51.556;6.832;2023-07-22T03:25:19;16.10;99.90
47114;DHT22;32867;51.556;6.832;2023-07-22T03:30:21;16.00;99.90
47114;DHT22;32867;51.556;6.832;2023-07-22T03:35:23;16.00;99.90
47114;DHT22;32867;51.556;6.832;2023-07-22T03:40:23;16.00;99.90
47114;DHT22;32867;51.556;6.832;2023-07-22T03:45:29;16.00;99.90
47114;DHT22;32867;51.556;6.832;2023-07-22T03:50:29;16.00;99.90
47114;DHT22;32867;51.556;6.832;2023-07-22T03:55:30;16.00;99.90
47114;DHT22;32867;51.556;6.832;2023-07-22T04:00:31;16.00;99.90
47114;DHT22;32867;51.556;6.832;2023-07-22T04:05:31;16.00;99.90
47114;DHT22;32867;51.556;6.832;2023-07-22T04:10:32;16.10;99.90
47114;DHT22;32867;51.556;6.832;2023-07-22T04:15:33;16.10;99.90
47114;DHT22;32867;51.556;6.832;2023-07-22T04:20:35;16.20;99.90
47114;DHT22;32867;51.556;6.832;2023-07-22T04:25:39;16.20;99.90
47114;DHT22;32867;51.556;6.832;2023-07-22T04:30:40;16.20;99.90
47114;DHT22;32867;51.556;6.832;2023-07-22T04:35:42;16.20;99.90
47114;DHT22;32867;51.556;6.832;2023-07-22T04:40:43;16.10;99.90
47114;DHT22;32867;51.556;6.832;2023-07-22T04:45:45;16.20;99.90
47114;DHT22;32867;51.556;6.832;2023-07-22T04:50:48;16.20;99.90
47114;DHT22;32867;51.556;6.832;2023-07-22T04:55:49;16.30;99.90
47114;DHT22;32867;51.556;6.832;2023-07-22T05:00:49;16.30;99.90
47114;DHT22;32867;51.556;6.832;2023-07-22T05:05:50;16.40;99.90
47114;DHT22;32867;51.556;6.832;2023-07-22T05:10:51;16.40;99.90
47114;DHT22;32867;51.556;6.832;2023-07-22T05:15:51;16.40;99.90
47114;DHT22;32867;51.556;6.832;2023-07-22T05:20:52;16.50;99.90
47114;DHT22;32867;51.556;6.832;2023-07-22T05:25:53;16.60;99.90
47114;DHT22;32867;51.556;6.832;2023-07-22T05:30:56;16.80;99.90
47114;DHT22;32867;51.556;6.832;2023-07-22T05:35:56;16.80;99.90
47114;DHT22;32867;51.556;6.832;2023-07-22T05:40:57;16.90;99.90
47114;DHT22;32867;51.556;6.832;2023-07-22T05:45:58;17.00;99.90
47114;DHT22;32867;51.556;6.832;2023-07-22T05:50:58;17.10;99.90
47114;DHT22;32867;51.556;6.832;2023-07-22T05:55:59;17.30;99.90
47114;DHT22;32867;51.556;6.832;2023-07-22T06:01:00;17.30;99.90
47114;DHT22;32867;51.556;6.832;2023-07-22T06:06:00;17.40;99.90
47114;DHT22;32867;51.556;6.832;2023-07-22T06:11:01;17.30;99.90
47114;DHT22;32867;51.556;6.832;2023-07-22T06:16:02;17.30;99.90
47114;DHT22;32867;51.556;6.832;2023-07-22T06:21:03;17.50;99.90
47114;DHT22;32867;51.556;6.832;2023-07-22T06:26:05;17.80;99.90
47114;DHT22;32867;51.556;6.832;2023-07-22T06:31:06;18.00;99.90
47114;DHT22;32867;51.556;6.832;2023-07-22T06:36:06;18.00;99.90
47114;DHT22;32867;51.556;6.832;2023-07-22T06:41:07;18.10;99.90
47114;DHT22;32867;51.556;6.832;2023-07-22T06:46:08;18.10;99.90
47114;DHT22;32867;51.556;6.832;2023-07-22T06:51:08;18.40;99.90
47114;DHT22;32867;51.556;6.832;2023-07-22T06:56:09;18.30;99.90
47114;DHT22;32867;51.556;6.832;2023-07-22T07:01:09;18.70;99.90
47114;DHT22;32867;51.556;6.832;2023-07-22T07:06:11;18.90;99.90
47114;DHT22;32867;51.556;6.832;2023-07-22T07:11:12;19.10;99.90
47114;DHT22;32867;51.556;6.832;2023-07-22T07:16:27;19.30;99.90
47114;DHT22;32867;51.556;6.832;2023-07-22T07:21:28;19.40;99.30
47114;DHT22;32867;51.556;6.832;2023-07-22T07:26:29;19.50;99.70
47114;DHT22;32867;51.556;6.832;2023-07-22T07:31:30;19.80;98.70
47114;DHT22;32867;51.556;6.832;2023-07-22T07:36:33;19.70;97.60
47114;DHT22;32867;51.556;6.832;2023-07-22T07:41:34;19.70;97.70
47114;DHT22;32867;51.556;6.832;2023-07-22T07:46:34;19.70;97.40
47114;DHT22;32867;51.556;6.832;2023-07-22T07:51:35;19.90;96.70
47114;DHT22;32867;51.556;6.832;2023-07-22T07:56:36;20.00;96.70
47114;DHT22;32867;51.556;6.832;2023-07-22T08:01:37;19.90;96.40
47114;DHT22;32867;51.556;6.832;2023-07-22T08:06:42;19.90;96.40
47114;DHT22;32867;51.556;6.832;2023-07-22T08:11:43;20.10;96.40
47114;DHT22;32867;51.556;6.832;2023-07-22T08:16:44;20.10;95.40
47114;DHT22;32867;51.556;6.832;2023-07-22T08:21:45;20.10;95.00
47114;DHT22;32867;51.556;6.832;2023-07-22T08:26:46;20.20;95.20
47114;DHT22;32867;51.556;6.832;2023-07-22T08:31:47;20.30;95.00
47114;DHT22;32867;51.556;6.832;2023-07-22T08:36:47;20.30;95.00
47114;DHT22;32867;51.556;6.832;2023-07-22T08:41:49;20.20;94.80
47114;DHT22;32867;51.556;6.832;2023-07-22T08:46:54;20.00;93.90
47114;DHT22;32867;51.556;6.832;2023-07-22T08:51:56;20.20;94.00
47114;DHT22;32867;51.556;6.832;2023-07-22T08:56:58;19.90;93.70
47114;DHT22;32867;51.556;6.832;2023-07-22T09:01:59;19.70;94.00
47114;DHT22;32867;51.556;6.832;2023-07-22T09:07:00;19.90;93.70
47114;DHT22;32867;51.556;6.832;2023-07-22T09:12:01;20.00;94.20
47114;DHT22;32867;51.556;6.832;2023-07-22T09:17:04;20.30;92.70
47114;DHT22;32867;51.556;6.832;2023-07-22T09:22:04;20.40;92.10
47114;DHT22;32867;51.556;6.832;2023-07-22T09:27:06;20.10;92.50
47114;DHT22;32867;51.556;6.832;2023-07-22T09:32:07;20.40;92.40
47114;DHT22;32867;51.556;6.832;2023-07-22T09:37:08;20.90;92.10
47114;DHT22;32867;51.556;6.832;2023-07-22T09:42:08;21.20;90.90
47114;DHT22;32867;51.556;6.832;2023-07-22T09:47:09;21.50;91.10
47114;DHT22;32867;51.556;6.832;2023-07-22T09:52:10;21.10;90.40
47114;DHT22;32867;51.556;6.832;2023-07-22T09:57:14;21.40;89.60
47114;DHT22;32867;51.556;6.832;2023-07-22T10:02:18;21.70;89.30
47114;DHT22;32867;51.556;6.832;2023-07-22T10:07:19;21.80;87.10
47114;DHT22;32867;51.556;6.832;2023-07-22T10:12:21;21.60;85.90
47114;DHT22;32867;51.556;6.832;2023-07-22T10:17:22;21.30;87.40
47114;DHT22;32867;51.556;6.832;2023-07-22T10:22:22;21.40;86.50
47114;DHT22;32867;51.556;6.832;2023-07-22T10:27:24;21.40;85.60
47114;DHT22;32867;51.556;6.832;2023-07-22T10:32:25;22.00;86.10
47114;DHT22;32867;51.556;6.832;2023-07-22T10:37:32;22.10;86.00
47114;DHT22;32867;51.556;6.832;2023-07-22T10:42:36;22.60;82.90
47114;DHT22;32867;51.556;6.832;2023-07-22T10:47:36;23.10;80.90
47114;DHT22;32867;51.556;6.832;2023-07-22T10:52:42;23.30;78.60
47114;DHT22;32867;51.556;6.832;2023-07-22T10:57:54;23.30;76.60
47114;DHT22;32867;51.556;6.832;2023-07-22T11:03:12;23.20;76.70
47114;DHT22;32867;51.556;6.832;2023-07-22T11:08:13;23.00;77.60
47114;DHT22;32867;51.556;6.832;2023-07-22T11:13:14;23.70;76.40
47114;DHT22;32867;51.556;6.832;2023-07-22T11:18:15;22.40;75.90
47114;DHT22;32867;51.556;6.832;2023-07-22T11:23:15;22.50;77.70
47114;DHT22;32867;51.556;6.832;2023-07-22T11:28:18;22.60;76.00
47114;DHT22;32867;51.556;6.832;2023-07-22T11:33:19;22.60;76.30
47114;DHT22;32867;51.556;6.832;2023-07-22T11:38:20;22.00;79.90
47114;DHT22;32867;51.556;6.832;2023-07-22T11:43:20;21.80;80.50
47114;DHT22;32867;51.556;6.832;2023-07-22T11:48:21;21.60;79.20
47114;DHT22;32867;51.556;6.832;2023-07-22T11:53:26;21.90;79.10
47114;DHT22;32867;51.556;6.832;2023-07-22T11:58:28;22.40;75.70
47114;DHT22;32867;51.556;6.832;2023-07-22T12:03:35;23.30;75.90
47114;DHT22;32867;51.556;6.832;2023-07-22T12:08:36;22.90;74.60
47114;DHT22;32867;51.556;6.832;2023-07-22T12:13:42;23.20;75.60
47114;DHT22;32867;51.556;6.832;2023-07-22T12:18:47;23.00;75.30
47114;DHT22;32867;51.556;6.832;2023-07-22T12:23:48;22.30;78.00
47114;DHT22;32867;51.556;6.832;2023-07-22T12:28:49;22.10;79.40
47114;DHT22;32867;51.556;6.832;2023-07-22T12:33:50;21.90;77.50
47114;DHT22;32867;51.556;6.832;2023-07-22T12:38:51;22.30;75.70
47114;DHT22;32867;51.556;6.832;2023-07-22T12:43:52;22.40;74.50
47114;DHT22;32867;51.556;6.832;2023-07-22T12:48:52;22.40;74.00
47114;DHT22;32867;51.556;6.832;2023-07-22T12:53:53;22.70;74.90
47114;DHT22;32867;51.556;6.832;2023-07-22T12:58:54;22.80;74.50
47114;DHT22;32867;51.556;6.832;2023-07-22T13:03:54;23.00;73.40
47114;DHT22;32867;51.556;6.832;2023-07-22T13:08:55;23.50;72.50
47114;DHT22;32867;51.556;6.832;2023-07-22T13:13:56;23.50;73.10
47114;DHT22;32867;51.556;6.832;2023-07-22T13:18:58;23.40;72.80
47114;DHT22;32867;51.556;6.832;2023-07-22T13:24:01;23.00;71.00
47114;DHT22;32867;51.556;6.832;2023-07-22T13:29:01;22.80;71.80
47114;DHT22;32867;51.556;6.832;2023-07-22T13:34:02;23.00;71.90
47114;DHT22;32867;51.556;6.832;2023-07-22T13:39:03;22.80;72.50
47114;DHT22;32867;51.556;6.832;2023-07-22T13:44:04;22.90;72.80
47114;DHT22;32867;51.556;6.832;2023-07-22T13:49:04;23.50;72.70
47114;DHT22;32867;51.556;6.832;2023-07-22T13:54:05;23.70;71.70
47114;DHT22;32867;51.556;6.832;2023-07-22T13:59:05;23.60;70.90
47114;DHT22;32867;51.556;6.832;2023-07-22T14:04:07;23.40;71.30
47114;DHT22;32867;51.556;6.832;2023-07-22T14:09:08;23.40;69.50
47114;DHT22;32867;51.556;6.832;2023-07-22T14:14:08;23.60;69.50
47114;DHT22;32867;51.556;6.832;2023-07-22T14:19:09;23.60;69.70
47114;DHT22;32867;51.556;6.832;2023-07-22T14:24:09;23.50;68.00
47114;DHT22;32867;51.556;6.832;2023-07-22T14:29:10;23.20;67.80
47114;DHT22;32867;51.556;6.832;2023-07-22T14:34:11;23.40;67.90
47114;DHT22;32867;51.556;6.832;2023-07-22T14:39:12;23.20;66.60
47114;DHT22;32867;51.556;6.832;2023-07-22T14:44:12;23.70;67.50
47114;DHT22;32867;51.556;6.832;2023-07-22T14:49:13;23.80;66.10
47114;DHT22;32867;51.556;6.832;2023-07-22T14:54:14;23.30;67.50
47114;DHT22;32867;51.556;6.832;2023-07-22T14:59:15;23.70;67.40
47114;DHT22;32867;51.556;6.832;2023-07-22T15:04:16;23.90;65.90
47114;DHT22;32867;51.556;6.832;2023-07-22T15:09:17;24.40;65.50
47114;DHT22;32867;51.556;6.832;2023-07-22T15:14:17;24.30;64.80
47114;DHT22;32867;51.556;6.832;2023-07-22T15:19:18;24.20;66.20
47114;DHT22;32867;51.556;6.832;2023-07-22T15:24:19;24.70;64.10
47114;DHT22;32867;51.556;6.832;2023-07-22T15:29:19;24.40;64.70
47114;DHT22;32867;51.556;6.832;2023-07-22T15:34:20;24.60;64.40
47114;DHT22;32867;51.556;6.832;2023-07-22T15:39:21;24.50;64.10
47114;DHT22;32867;51.556;6.832;2023-07-22T15:44:21;24.00;64.80
47114;DHT22;32867;51.556;6.832;2023-07-22T15:49:27;24.10;64.90
47114;DHT22;32867;51.556;6.832;2023-07-22T15:54:28;24.50;64.10
47114;DHT22;32867;51.556;6.832;2023-07-22T15:59:29;23.90;63.70
47114;DHT22;32867;51.556;6.832;2023-07-22T16:04:29;23.60;63.80
47114;DHT22;32867;51.556;6.832;2023-07-22T16:09:30;23.50;64.20
47114;DHT22;32867;51.556;6.832;2023-07-22T16:14:30;23.10;64.70
47114;DHT22;32867;51.556;6.832;2023-07-22T16:19:31;22.80;65.50
47114;DHT22;32867;51.556;6.832;2023-07-22T16:24:33;23.10;66.00
47114;DHT22;32867;51.556;6.832;2023-07-22T16:29:35;23.40;66.10
47114;DHT22;32867;51.556;6.832;2023-07-22T16:34:36;23.10;66.00
47114;DHT22;32867;51.556;6.832;2023-07-22T16:39:37;22.80;65.60
47114;DHT22;32867;51.556;6.832;2023-07-22T16:44:38;22.60;66.00
47114;DHT22;32867;51.556;6.832;2023-07-22T16:49:38;22.80;66.70
47114;DHT22;32867;51.556;6.832;2023-07-22T16:54:39;22.90;65.90
47114;DHT22;32867;51.556;6.832;2023-07-22T16:59:40;22.90;66.80
47114;DHT22;32867;51.556;6.832;2023-07-22T17:04:41;22.90;67.90
47114;DHT22;32867;51.556;6.832;2023-07-22T17:09:41;22.80;68.00
47114;DHT22;32867;51.556;6.832;2023-07-22T17:14:42;22.60;67.50
47114;DHT22;32867;51.556;6.832;2023-07-22T17:19:43;22.30;67.80
47114;DHT22;32867;51.556;6.832;2023-07-22T17:24:43;22.40;68.30
47114;DHT22;32867;51.556;6.832;2023-07-22T17:29:44;22.50;67.70
47114;DHT22;32867;51.556;6.832;2023-07-22T17:34:45;22.40;67.90
47114;DHT22;32867;51.556;6.832;2023-07-22T17:39:45;22.20;68.00
47114;DHT22;32867;51.556;6.832;2023-07-22T17:44:46;22.10;68.50
47114;DHT22;32867;51.556;6.832;2023-07-22T17:49:47;22.00;68.40
47114;DHT22;32867;51.556;6.832;2023-07-22T17:54:47;21.80;68.30
47114;DHT22;32867;51.556;6.832;2023-07-22T17:59:48;21.70;68.10
47114;DHT22;32867;51.556;6.832;2023-07-22T18:04:49;21.80;67.50
47114;DHT22;32867;51.556;6.832;2023-07-22T18:09:50;21.70;68.10
47114;DHT22;32867;51.556;6.832;2023-07-22T18:14:50;21.70;68.20
47114;DHT22;32867;51.556;6.832;2023-07-22T18:19:51;21.50;67.80
47114;DHT22;32867;51.556;6.832;2023-07-22T18:24:52;21.50;67.70
47114;DHT22;32867;51.556;6.832;2023-07-22T18:29:52;21.50;67.20
47114;DHT22;32867;51.556;6.832;2023-07-22T18:34:59;21.30;67.80
47114;DHT22;32867;51.556;6.832;2023-07-22T18:39:59;21.40;68.10
47114;DHT22;32867;51.556;6.832;2023-07-22T18:45:00;21.40;68.90
47114;DHT22;32867;51.556;6.832;2023-07-22T18:50:01;21.20;69.20
47114;DHT22;32867;51.556;6.832;2023-07-22T18:55:03;21.30;69.30
47114;DHT22;32867;51.556;6.832;2023-07-22T19:00:04;21.20;69.40
47114;DHT22;32867;51.556;6.832;2023-07-22T19:05:05;20.90;70.00
47114;DHT22;32867;51.556;6.832;2023-07-22T19:10:06;20.80;70.50
47114;DHT22;32867;51.556;6.832;2023-07-22T19:15:07;20.70;70.90
47114;DHT22;32867;51.556;6.832;2023-07-22T19:20:08;20.80;71.00
47114;DHT22;32867;51.556;6.832;2023-07-22T19:25:10;20.80;71.40
47114;DHT22;32867;51.556;6.832;2023-07-22T19:30:11;20.80;71.40
47114;DHT22;32867;51.556;6.832;2023-07-22T19:35:12;20.70;72.60
47114;DHT22;32867;51.556;6.832;2023-07-22T19:40:13;20.80;72.20
47114;DHT22;32867;51.556;6.832;2023-07-22T19:45:14;20.80;72.60
47114;DHT22;32867;51.556;6.832;2023-07-22T19:50:14;20.70;73.90
47114;DHT22;32867;51.556;6.832;2023-07-22T19:55:15;20.60;74.90
47114;DHT22;32867;51.556;6.832;2023-07-22T20:00:16;20.50;77.50
47114;DHT22;32867;51.556;6.832;2023-07-22T20:05:16;20.20;78.60
47114;DHT22;32867;51.556;6.832;2023-07-22T20:10:17;20.00;81.20
47114;DHT22;32867;51.556;6.832;2023-07-22T20:15:18;19.90;83.20
47114;DHT22;32867;51.556;6.832;2023-07-22T20:20:18;19.60;86.70
47114;DHT22;32867;51.556;6.832;2023-07-22T20:25:19;19.50;89.90
47114;DHT22;32867;51.556;6.832;2023-07-22T20:30:20;19.50;90.60
47114;DHT22;32867;51.556;6.832;2023-07-22T20:35:23;19.30;92.30
47114;DHT22;32867;51.556;6.832;2023-07-22T20:40:23;19.30;94.90
47114;DHT22;32867;51.556;6.832;2023-07-22T20:45:24;19.40;97.50
47114;DHT22;32867;51.556;6.832;2023-07-22T20:50:25;19.50;99.90
47114;DHT22;32867;51.556;6.832;2023-07-22T20:55:26;19.60;99.90
47114;DHT22;32867;51.556;6.832;2023-07-22T21:00:26;19.50;99.90
47114;DHT22;32867;51.556;6.832;2023-07-22T21:05:27;19.50;99.90
47114;DHT22;32867;51.556;6.832;2023-07-22T21:10:29;19.50;99.90
47114;DHT22;32867;51.556;6.832;2023-07-22T21:15:29;19.40;99.90
47114;DHT22;32867;51.556;6.832;2023-07-22T21:20:30;19.30;99.90
47114;DHT22;32867;51.556;6.832;2023-07-22T21:25:31;19.30;99.90
47114;DHT22;32867;51.556;6.832;2023-07-22T21:30:32;19.20;99.90
47114;DHT22;32867;51.556;6.832;2023-07-22T21:35:36;19.20;99.90
47114;DHT22;32867;51.556;6.832;2023-07-22T21:40:36;19.10;99.90
47114;DHT22;32867;51.556;6.832;2023-07-22T21:45:37;19.00;99.90
47114;DHT22;32867;51.556;6.832;2023-07-22T21:50:39;18.90;99.90
47114;DHT22;32867;51.556;6.832;2023-07-22T21:55:40;18.90;99.90
47114;DHT22;32867;51.556;6.832;2023-07-22T22:00:41;18.90;99.90
47114;DHT22;32867;51.556;6.832;2023-07-22T22:05:41;18.90;99.90
47114;DHT22;32867;51.556;6.832;2023-07-22T22:10:42;18.80;99.90
47114;DHT22;32867;51.556;6.832;2023-07-22T22:15:46;18.80;99.90
47114;DHT22;32867;51.556;6.832;2023-07-22T22:20:48;18.80;99.90
47114;DHT22;32867;51.556;6.832;2023-07-22T22:25:48;18.80;99.90
47114;DHT22;32867;51.556;6.832;2023-07-22T22:30:49;18.70;99.90
47114;DHT22;32867;51.556;6.832;2023-07-22T22:35:50;18.70;99.90
47114;DHT22;32867;51.556;6.832;2023-07-22T22:40:50;18.70;99.90
47114;DHT22;32867;51.556;6.832;2023-07-22T22:45:51;18.70;99.90
47114;DHT22;32867;51.556;6.832;2023-07-22T22:50:52;18.70;99.90
47114;DHT22;32867;51.556;6.832;2023-07-22T22:55:52;18.60;99.90
47114;DHT22;32867;51.556;6.832;2023-07-22T23:00:53;18.50;99.90
47114;DHT22;32867;51.556;6.832;2023-07-22T23:05:53;18.40;99.90
47114;DHT22;32867;51.556;6.832;2023-07-22T23:10:54;18.30;99.90
47114;DHT22;32867;51.556;6.832;2023-07-22T23:15:55;18.20;99.90
47114;DHT22;32867;51.556;6.832;2023-07-22T23:20:55;18.20;99.90
47114;DHT22;32867;51.556;6.832;2023-07-22T23:25:56;18.10;99.90
47114;DHT22;32867;51.556;6.832;2023-07-22T23:30:57;18.10;99.90
47114;DHT22;32867;51.556;6.832;2023-07-22T23:36:01;18.00;99.90
47114;DHT22;32867;51.556;6.832;2023-07-22T23:41:02;17.90;99.90
47114;DHT22;32867;51.556;6.832;2023-07-22T23:46:03;17.90;99.90
47114;DHT22;32867;51.556;6.832;2023-07-22T23:51:04;17.90;99.90
47114;DHT22;32867;51.556;6.832;2023-07-22T23:56:04;17.90;99.90
